sensor_id;sensor_type;location;lat;lon;timestamp;pressure;altitude;pressure_sealevel;temperature;humidity
35647;BME280;28680;45.642;13.756;2022-09-13T00:00:56;101094.88;;;21.28;100.00
35647;BME280;28680;45.642;13.756;2022-09-13T00:03:24;101091.47;;;21.34;100.00
35647;BME280;28680;45.642;13.756;2022-09-13T00:05:50;101089.72;;;21.26;100.00
35647;BME280;28680;45.642;13.756;2022-09-13T00:08:18;101094.97;;;21.19;100.00
35647;BME280;28680;45.642;13.756;2022-09-13T00:10:45;101094.69;;;21.14;100.00
35647;BME280;28680;45.642;13.756;2022-09-13T00:13:13;101090.28;;;21.21;100.00
35647;BME280;28680;45.642;13.756;2022-09-13T00:15:48;101096.88;;;21.11;100.00
35647;BME280;28680;45.642;13.756;2022-09-13T00:18:16;101100.19;;;21.13;100.00
35647;BME280;28680;45.642;13.756;2022-09-13T00:20:43;101097.22;;;21.08;100.00
35647;BME280;28680;45.642;13.756;2022-09-13T00:23:09;101096.56;;;21.06;100.00
35647;BME280;28680;45.642;13.756;2022-09-13T00:25:36;101099.19;;;21.14;100.00
35647;BME280;28680;45.642;13.756;2022-09-13T00:28:03;101104.63;;;21.20;100.00
35647;BME280;28680;45.642;13.756;2022-09-13T00:30:30;101103.53;;;21.30;100.00
35647;BME280;28680;45.642;13.756;2022-09-13T00:32:56;101105.25;;;21.46;100.00
35647;BME280;28680;45.642;13.756;2022-09-13T00:35:22;101108.69;;;21.31;100.00
35647;BME280;28680;45.642;13.756;2022-09-13T00:37:48;101109.44;;;21.25;100.00
35647;BME280;28680;45.642;13.756;2022-09-13T00:40:20;101113.56;;;21.28;100.00
35647;BME280;28680;45.642;13.756;2022-09-13T00:46:31;101107.31;;;21.35;100.00
35647;BME280;28680;45.642;13.756;2022-09-13T00:49:12;101105.13;;;21.39;100.00
35647;BME280;28680;45.642;13.756;2022-09-13T00:51:44;101107.88;;;21.31;100.00
35647;BME280;28680;45.642;13.756;2022-09-13T00:54:11;101097.38;;;21.29;100.00
35647;BME280;28680;45.642;13.756;2022-09-13T00:56:44;101109.03;;;21.28;100.00
35647;BME280;28680;45.642;13.756;2022-09-13T00:59:25;101100.78;;;21.23;100.00
35647;BME280;28680;45.642;13.756;2022-09-13T01:01:55;101093.41;;;21.25;100.00
35647;BME280;28680;45.642;13.756;2022-09-13T01:04:25;101092.13;;;21.21;100.00
35647;BME280;28680;45.642;13.756;2022-09-13T01:06:55;101093.94;;;21.20;100.00
35647;BME280;28680;45.642;13.756;2022-09-13T01:09:24;101082.16;;;21.15;100.00
35647;BME280;28680;45.642;13.756;2022-09-13T01:12:28;101079.44;;;21.00;100.00
35647;BME280;28680;45.642;13.756;2022-09-13T01:14:59;101074.50;;;20.97;100.00
35647;BME280;28680;45.642;13.756;2022-09-13T01:17:27;101075.13;;;20.99;100.00
35647;BME280;28680;45.642;13.756;2022-09-13T01:19:54;101074.09;;;20.85;100.00
35647;BME280;28680;45.642;13.756;2022-09-13T01:28:54;101087.78;;;20.82;100.00
35647;BME280;28680;45.642;13.756;2022-09-13T02:05:45;101050.84;;;20.48;100.00
35647;BME280;28680;45.642;13.756;2022-09-13T02:11:15;101042.00;;;20.24;100.00
35647;BME280;28680;45.642;13.756;2022-09-13T02:14:15;101035.84;;;20.23;100.00
35647;BME280;28680;45.642;13.756;2022-09-13T02:16:59;101042.53;;;20.19;100.00
35647;BME280;28680;45.642;13.756;2022-09-13T02:22:22;101038.25;;;20.10;100.00
35647;BME280;28680;45.642;13.756;2022-09-13T02:24:58;101032.44;;;20.06;100.00
35647;BME280;28680;45.642;13.756;2022-09-13T02:27:31;101031.41;;;20.16;100.00
35647;BME280;28680;45.642;13.756;2022-09-13T02:30:06;101039.50;;;20.22;100.00
35647;BME280;28680;45.642;13.756;2022-09-13T02:33:03;101040.53;;;20.21;100.00
35647;BME280;28680;45.642;13.756;2022-09-13T02:35:38;101037.84;;;20.21;100.00
35647;BME280;28680;45.642;13.756;2022-09-13T02:38:22;101036.31;;;20.04;100.00
35647;BME280;28680;45.642;13.756;2022-09-13T02:41:24;101044.84;;;19.91;100.00
35647;BME280;28680;45.642;13.756;2022-09-13T02:44:09;101049.00;;;19.94;100.00
35647;BME280;28680;45.642;13.756;2022-09-13T02:49:43;101048.00;;;19.95;100.00
35647;BME280;28680;45.642;13.756;2022-09-13T02:58:20;101048.84;;;20.18;100.00
35647;BME280;28680;45.642;13.756;2022-09-13T03:00:52;101046.19;;;20.18;100.00
35647;BME280;28680;45.642;13.756;2022-09-13T03:03:19;101048.69;;;20.20;100.00
35647;BME280;28680;45.642;13.756;2022-09-13T03:05:45;101042.16;;;20.22;100.00
35647;BME280;28680;45.642;13.756;2022-09-13T03:08:13;101042.00;;;20.24;100.00
35647;BME280;28680;45.642;13.756;2022-09-13T03:11:06;101038.69;;;20.22;100.00
35647;BME280;28680;45.642;13.756;2022-09-13T03:13:49;101035.03;;;20.23;100.00
35647;BME280;28680;45.642;13.756;2022-09-13T03:23:17;101043.28;;;20.05;100.00
35647;BME280;28680;45.642;13.756;2022-09-13T03:26:20;101039.13;;;20.02;100.00
35647;BME280;28680;45.642;13.756;2022-09-13T03:32:12;101047.47;;;19.99;100.00
35647;BME280;28680;45.642;13.756;2022-09-13T03:37:46;101036.88;;;19.91;100.00
35647;BME280;28680;45.642;13.756;2022-09-13T03:43:15;101034.59;;;19.80;100.00
35647;BME280;28680;45.642;13.756;2022-09-13T03:45:54;101023.72;;;19.90;100.00
35647;BME280;28680;45.642;13.756;2022-09-13T03:48:29;101026.72;;;19.86;100.00
35647;BME280;28680;45.642;13.756;2022-09-13T03:50:56;101019.41;;;19.89;100.00
35647;BME280;28680;45.642;13.756;2022-09-13T03:53:27;101028.22;;;19.89;100.00
35647;BME280;28680;45.642;13.756;2022-09-13T03:55:55;101023.53;;;19.91;100.00
35647;BME280;28680;45.642;13.756;2022-09-13T03:58:24;101020.56;;;19.86;100.00
35647;BME280;28680;45.642;13.756;2022-09-13T04:00:51;101019.19;;;19.90;100.00
35647;BME280;28680;45.642;13.756;2022-09-13T04:03:19;101018.38;;;19.90;100.00
35647;BME280;28680;45.642;13.756;2022-09-13T04:05:46;101020.41;;;19.88;100.00
35647;BME280;28680;45.642;13.756;2022-09-13T04:08:14;101026.84;;;19.93;100.00
35647;BME280;28680;45.642;13.756;2022-09-13T04:10:40;101017.84;;;19.94;100.00
35647;BME280;28680;45.642;13.756;2022-09-13T04:13:06;101020.72;;;19.93;100.00
35647;BME280;28680;45.642;13.756;2022-09-13T04:15:33;101024.69;;;19.97;100.00
35647;BME280;28680;45.642;13.756;2022-09-13T04:17:59;101017.91;;;19.86;100.00
35647;BME280;28680;45.642;13.756;2022-09-13T04:20:26;101015.59;;;19.83;100.00
35647;BME280;28680;45.642;13.756;2022-09-13T04:22:54;101011.97;;;19.76;100.00
35647;BME280;28680;45.642;13.756;2022-09-13T04:25:21;101009.78;;;19.79;100.00
35647;BME280;28680;45.642;13.756;2022-09-13T04:27:55;101014.81;;;19.74;100.00
35647;BME280;28680;45.642;13.756;2022-09-13T04:30:22;101013.75;;;19.83;100.00
35647;BME280;28680;45.642;13.756;2022-09-13T04:32:48;101007.25;;;19.86;100.00
35647;BME280;28680;45.642;13.756;2022-09-13T04:35:14;101012.88;;;19.91;100.00
35647;BME280;28680;45.642;13.756;2022-09-13T04:37:42;101016.75;;;19.89;100.00
35647;BME280;28680;45.642;13.756;2022-09-13T04:40:10;101024.25;;;19.85;100.00
35647;BME280;28680;45.642;13.756;2022-09-13T04:42:37;101033.94;;;19.78;100.00
35647;BME280;28680;45.642;13.756;2022-09-13T04:45:05;101031.09;;;19.79;100.00
35647;BME280;28680;45.642;13.756;2022-09-13T04:47:33;101039.38;;;19.84;100.00
35647;BME280;28680;45.642;13.756;2022-09-13T04:49:59;101029.84;;;19.90;100.00
35647;BME280;28680;45.642;13.756;2022-09-13T04:52:25;101027.56;;;19.87;100.00
35647;BME280;28680;45.642;13.756;2022-09-13T04:54:50;101035.72;;;19.85;100.00
35647;BME280;28680;45.642;13.756;2022-09-13T04:57:17;101047.69;;;19.90;100.00
35647;BME280;28680;45.642;13.756;2022-09-13T04:59:43;101037.03;;;19.90;100.00
35647;BME280;28680;45.642;13.756;2022-09-13T05:02:09;101043.53;;;19.87;100.00
35647;BME280;28680;45.642;13.756;2022-09-13T05:04:35;101040.22;;;19.85;100.00
35647;BME280;28680;45.642;13.756;2022-09-13T05:07:01;101044.69;;;19.84;100.00
35647;BME280;28680;45.642;13.756;2022-09-13T05:09:27;101043.72;;;19.85;100.00
35647;BME280;28680;45.642;13.756;2022-09-13T05:11:53;101044.38;;;19.88;100.00
35647;BME280;28680;45.642;13.756;2022-09-13T05:14:21;101041.38;;;19.91;100.00
35647;BME280;28680;45.642;13.756;2022-09-13T05:16:47;101044.84;;;19.91;100.00
35647;BME280;28680;45.642;13.756;2022-09-13T05:19:13;101044.53;;;19.86;100.00
35647;BME280;28680;45.642;13.756;2022-09-13T05:21:39;101043.97;;;19.99;100.00
35647;BME280;28680;45.642;13.756;2022-09-13T05:24:04;101051.63;;;20.02;100.00
35647;BME280;28680;45.642;13.756;2022-09-13T05:26:30;101048.09;;;20.10;100.00
35647;BME280;28680;45.642;13.756;2022-09-13T05:28:58;101052.88;;;20.14;100.00
35647;BME280;28680;45.642;13.756;2022-09-13T05:31:29;101058.09;;;20.08;100.00
35647;BME280;28680;45.642;13.756;2022-09-13T05:34:05;101068.59;;;20.01;100.00
35647;BME280;28680;45.642;13.756;2022-09-13T05:36:32;101067.25;;;20.05;100.00
35647;BME280;28680;45.642;13.756;2022-09-13T05:38:58;101067.91;;;20.07;100.00
35647;BME280;28680;45.642;13.756;2022-09-13T05:41:25;101062.56;;;20.07;100.00
35647;BME280;28680;45.642;13.756;2022-09-13T05:43:51;101067.72;;;20.09;100.00
35647;BME280;28680;45.642;13.756;2022-09-13T05:46:18;101063.84;;;20.19;100.00
35647;BME280;28680;45.642;13.756;2022-09-13T05:48:46;101066.16;;;20.22;100.00
35647;BME280;28680;45.642;13.756;2022-09-13T05:51:22;101064.69;;;20.20;100.00
35647;BME280;28680;45.642;13.756;2022-09-13T05:53:50;101059.44;;;20.35;100.00
35647;BME280;28680;45.642;13.756;2022-09-13T05:56:21;101064.34;;;20.46;100.00
35647;BME280;28680;45.642;13.756;2022-09-13T05:58:50;101065.56;;;20.58;100.00
35647;BME280;28680;45.642;13.756;2022-09-13T06:01:20;101059.59;;;20.56;100.00
35647;BME280;28680;45.642;13.756;2022-09-13T06:03:48;101063.63;;;20.52;100.00
35647;BME280;28680;45.642;13.756;2022-09-13T06:06:14;101066.69;;;20.49;100.00
35647;BME280;28680;45.642;13.756;2022-09-13T06:08:41;101065.34;;;20.45;100.00
35647;BME280;28680;45.642;13.756;2022-09-13T06:11:11;101061.91;;;20.59;100.00
35647;BME280;28680;45.642;13.756;2022-09-13T06:13:38;101063.38;;;20.70;100.00
35647;BME280;28680;45.642;13.756;2022-09-13T06:16:07;101056.25;;;20.86;100.00
35647;BME280;28680;45.642;13.756;2022-09-13T06:18:34;101059.63;;;20.79;100.00
35647;BME280;28680;45.642;13.756;2022-09-13T06:21:13;101053.88;;;21.06;100.00
35647;BME280;28680;45.642;13.756;2022-09-13T06:23:50;101053.38;;;21.25;100.00
35647;BME280;28680;45.642;13.756;2022-09-13T06:26:25;101050.59;;;21.33;100.00
35647;BME280;28680;45.642;13.756;2022-09-13T06:28:54;101060.19;;;21.42;100.00
35647;BME280;28680;45.642;13.756;2022-09-13T06:31:23;101046.69;;;21.44;100.00
35647;BME280;28680;45.642;13.756;2022-09-13T06:33:59;101046.06;;;21.57;100.00
35647;BME280;28680;45.642;13.756;2022-09-13T06:36:27;101039.16;;;21.48;100.00
35647;BME280;28680;45.642;13.756;2022-09-13T06:38:53;101042.34;;;21.58;100.00
35647;BME280;28680;45.642;13.756;2022-09-13T06:41:22;101032.94;;;21.77;100.00
35647;BME280;28680;45.642;13.756;2022-09-13T06:43:54;101031.06;;;21.92;100.00
35647;BME280;28680;45.642;13.756;2022-09-13T06:46:20;101033.00;;;21.98;100.00
35647;BME280;28680;45.642;13.756;2022-09-13T06:48:46;101031.78;;;22.01;100.00
35647;BME280;28680;45.642;13.756;2022-09-13T06:51:18;101039.03;;;22.07;100.00
35647;BME280;28680;45.642;13.756;2022-09-13T06:53:46;101034.97;;;22.11;100.00
35647;BME280;28680;45.642;13.756;2022-09-13T06:56:30;101020.88;;;22.17;100.00
35647;BME280;28680;45.642;13.756;2022-09-13T06:59:09;101031.81;;;22.23;100.00
35647;BME280;28680;45.642;13.756;2022-09-13T07:01:41;101038.25;;;22.28;100.00
35647;BME280;28680;45.642;13.756;2022-09-13T07:04:16;101039.34;;;22.34;100.00
35647;BME280;28680;45.642;13.756;2022-09-13T07:06:48;101039.03;;;22.44;100.00
35647;BME280;28680;45.642;13.756;2022-09-13T07:09:18;101041.97;;;22.49;100.00
35647;BME280;28680;45.642;13.756;2022-09-13T07:11:46;101043.06;;;22.54;100.00
35647;BME280;28680;45.642;13.756;2022-09-13T07:14:19;101049.34;;;22.47;100.00
35647;BME280;28680;45.642;13.756;2022-09-13T07:16:46;101052.34;;;22.58;100.00
35647;BME280;28680;45.642;13.756;2022-09-13T07:19:24;101054.94;;;22.73;100.00
35647;BME280;28680;45.642;13.756;2022-09-13T07:21:56;101054.28;;;22.93;100.00
35647;BME280;28680;45.642;13.756;2022-09-13T07:24:23;101053.53;;;22.99;100.00
35647;BME280;28680;45.642;13.756;2022-09-13T07:26:49;101058.38;;;23.10;100.00
35647;BME280;28680;45.642;13.756;2022-09-13T07:29:19;101056.06;;;23.07;100.00
35647;BME280;28680;45.642;13.756;2022-09-13T07:31:51;101055.91;;;23.15;100.00
35647;BME280;28680;45.642;13.756;2022-09-13T07:34:20;101056.78;;;23.23;100.00
35647;BME280;28680;45.642;13.756;2022-09-13T07:36:47;101054.38;;;23.34;100.00
35647;BME280;28680;45.642;13.756;2022-09-13T07:39:17;101056.50;;;23.46;100.00
35647;BME280;28680;45.642;13.756;2022-09-13T07:41:44;101057.16;;;23.48;100.00
35647;BME280;28680;45.642;13.756;2022-09-13T07:44:13;101047.22;;;23.42;100.00
35647;BME280;28680;45.642;13.756;2022-09-13T07:46:39;101052.78;;;23.40;100.00
35647;BME280;28680;45.642;13.756;2022-09-13T07:49:10;101047.25;;;23.83;100.00
35647;BME280;28680;45.642;13.756;2022-09-13T07:51:41;101055.78;;;24.07;100.00
35647;BME280;28680;45.642;13.756;2022-09-13T07:54:15;101051.25;;;24.07;100.00
35647;BME280;28680;45.642;13.756;2022-09-13T07:56:42;101051.44;;;24.06;100.00
35647;BME280;28680;45.642;13.756;2022-09-13T07:59:15;101048.59;;;24.14;100.00
35647;BME280;28680;45.642;13.756;2022-09-13T08:01:48;101049.72;;;24.53;100.00
35647;BME280;28680;45.642;13.756;2022-09-13T08:04:24;101042.50;;;25.00;100.00
35647;BME280;28680;45.642;13.756;2022-09-13T08:06:51;101047.00;;;25.46;100.00
35647;BME280;28680;45.642;13.756;2022-09-13T08:09:18;101039.53;;;25.48;100.00
35647;BME280;28680;45.642;13.756;2022-09-13T08:11:47;101035.59;;;25.51;100.00
35647;BME280;28680;45.642;13.756;2022-09-13T08:14:16;101029.88;;;25.86;100.00
35647;BME280;28680;45.642;13.756;2022-09-13T08:16:42;101032.66;;;26.11;100.00
35647;BME280;28680;45.642;13.756;2022-09-13T08:19:14;101039.78;;;26.31;100.00
35647;BME280;28680;45.642;13.756;2022-09-13T08:21:41;101038.31;;;26.35;100.00
35647;BME280;28680;45.642;13.756;2022-09-13T08:24:21;101043.38;;;26.50;100.00
35647;BME280;28680;45.642;13.756;2022-09-13T08:26:47;101047.09;;;26.80;100.00
35647;BME280;28680;45.642;13.756;2022-09-13T08:29:14;101039.66;;;27.01;100.00
35647;BME280;28680;45.642;13.756;2022-09-13T08:31:43;101048.78;;;27.00;100.00
35647;BME280;28680;45.642;13.756;2022-09-13T08:34:13;101057.22;;;26.60;100.00
35647;BME280;28680;45.642;13.756;2022-09-13T08:36:41;101053.16;;;26.44;100.00
35647;BME280;28680;45.642;13.756;2022-09-13T08:39:13;101052.41;;;26.30;100.00
35647;BME280;28680;45.642;13.756;2022-09-13T08:44:32;101044.34;;;26.87;100.00
35647;BME280;28680;45.642;13.756;2022-09-13T08:47:39;101053.13;;;27.26;100.00
35647;BME280;28680;45.642;13.756;2022-09-13T08:50:32;101044.16;;;27.32;100.00
35647;BME280;28680;45.642;13.756;2022-09-13T08:53:17;101036.56;;;27.96;100.00
35647;BME280;28680;45.642;13.756;2022-09-13T09:10:47;101044.66;;;29.16;100.00
35647;BME280;28680;45.642;13.756;2022-09-13T09:13:23;101043.59;;;29.17;100.00
35647;BME280;28680;45.642;13.756;2022-09-13T09:15:57;101047.91;;;29.30;100.00
35647;BME280;28680;45.642;13.756;2022-09-13T09:18:32;101049.44;;;29.49;100.00
35647;BME280;28680;45.642;13.756;2022-09-13T09:21:01;101050.63;;;29.18;100.00
35647;BME280;28680;45.642;13.756;2022-09-13T09:26:25;101046.66;;;29.21;100.00
35647;BME280;28680;45.642;13.756;2022-09-13T09:31:39;101053.31;;;29.42;100.00
35647;BME280;28680;45.642;13.756;2022-09-13T09:37:37;101049.25;;;29.15;100.00
35647;BME280;28680;45.642;13.756;2022-09-13T09:40:11;101044.78;;;29.21;100.00
35647;BME280;28680;45.642;13.756;2022-09-13T09:42:47;101048.59;;;29.49;100.00
35647;BME280;28680;45.642;13.756;2022-09-13T09:45:28;101046.38;;;29.46;100.00
35647;BME280;28680;45.642;13.756;2022-09-13T09:48:01;101048.22;;;29.57;100.00
35647;BME280;28680;45.642;13.756;2022-09-13T09:50:40;101050.47;;;29.48;100.00
35647;BME280;28680;45.642;13.756;2022-09-13T09:53:14;101058.00;;;29.46;100.00
35647;BME280;28680;45.642;13.756;2022-09-13T09:55:46;101051.97;;;29.56;100.00
35647;BME280;28680;45.642;13.756;2022-09-13T09:58:14;101046.00;;;30.23;100.00
35647;BME280;28680;45.642;13.756;2022-09-13T10:00:57;101054.56;;;30.49;100.00
35647;BME280;28680;45.642;13.756;2022-09-13T10:03:29;101053.44;;;30.16;100.00
35647;BME280;28680;45.642;13.756;2022-09-13T10:06:10;101049.25;;;30.08;100.00
35647;BME280;28680;45.642;13.756;2022-09-13T10:08:40;101044.06;;;30.07;100.00
35647;BME280;28680;45.642;13.756;2022-09-13T10:11:10;101038.69;;;30.24;100.00
35647;BME280;28680;45.642;13.756;2022-09-13T10:13:36;101031.09;;;30.09;100.00
35647;BME280;28680;45.642;13.756;2022-09-13T10:16:26;101025.19;;;29.95;100.00
35647;BME280;28680;45.642;13.756;2022-09-13T10:18:53;101023.13;;;29.85;100.00
35647;BME280;28680;45.642;13.756;2022-09-13T10:21:24;101010.34;;;29.98;100.00
35647;BME280;28680;45.642;13.756;2022-09-13T10:23:52;101004.75;;;29.87;100.00
35647;BME280;28680;45.642;13.756;2022-09-13T10:26:42;101001.44;;;30.31;100.00
35647;BME280;28680;45.642;13.756;2022-09-13T10:29:14;100995.81;;;30.33;100.00
35647;BME280;28680;45.642;13.756;2022-09-13T10:31:44;101006.66;;;30.33;100.00
35647;BME280;28680;45.642;13.756;2022-09-13T10:34:30;101008.03;;;30.52;100.00
35647;BME280;28680;45.642;13.756;2022-09-13T10:37:20;101010.31;;;30.77;100.00
35647;BME280;28680;45.642;13.756;2022-09-13T10:40:06;101007.44;;;30.84;100.00
35647;BME280;28680;45.642;13.756;2022-09-13T10:42:34;101008.59;;;31.27;100.00
35647;BME280;28680;45.642;13.756;2022-09-13T10:45:02;101014.97;;;31.16;100.00
35647;BME280;28680;45.642;13.756;2022-09-13T10:47:32;101009.84;;;30.63;100.00
35647;BME280;28680;45.642;13.756;2022-09-13T10:50:23;101007.38;;;30.62;100.00
35647;BME280;28680;45.642;13.756;2022-09-13T10:52:53;101010.28;;;30.55;100.00
35647;BME280;28680;45.642;13.756;2022-09-13T10:55:36;101000.91;;;30.46;100.00
35647;BME280;28680;45.642;13.756;2022-09-13T11:06:58;101006.09;;;30.19;100.00
35647;BME280;28680;45.642;13.756;2022-09-13T11:09:47;100995.63;;;30.73;100.00
35647;BME280;28680;45.642;13.756;2022-09-13T11:15:46;100994.25;;;30.37;100.00
35647;BME280;28680;45.642;13.756;2022-09-13T11:22:32;100994.03;;;30.55;100.00
35647;BME280;28680;45.642;13.756;2022-09-13T11:24:34;101005.81;;;30.32;100.00
35647;BME280;28680;45.642;13.756;2022-09-13T11:27:32;101004.16;;;30.99;100.00
35647;BME280;28680;45.642;13.756;2022-09-13T11:30:18;101005.06;;;31.04;100.00
35647;BME280;28680;45.642;13.756;2022-09-13T11:38:35;101015.22;;;31.58;100.00
35647;BME280;28680;45.642;13.756;2022-09-13T11:44:48;101018.03;;;31.02;100.00
35647;BME280;28680;45.642;13.756;2022-09-13T11:48:14;101021.31;;;30.87;100.00
35647;BME280;28680;45.642;13.756;2022-09-13T11:50:55;101019.88;;;31.19;100.00
35647;BME280;28680;45.642;13.756;2022-09-13T11:53:55;101018.00;;;31.63;100.00
35647;BME280;28680;45.642;13.756;2022-09-13T11:56:35;101016.50;;;31.51;100.00
35647;BME280;28680;45.642;13.756;2022-09-13T12:05:19;101015.38;;;31.46;100.00
35647;BME280;28680;45.642;13.756;2022-09-13T12:11:08;101019.53;;;31.54;100.00
35647;BME280;28680;45.642;13.756;2022-09-13T12:14:03;101015.16;;;30.92;100.00
35647;BME280;28680;45.642;13.756;2022-09-13T12:16:35;101020.19;;;30.49;100.00
35647;BME280;28680;45.642;13.756;2022-09-13T12:21:53;101021.09;;;30.55;100.00
35647;BME280;28680;45.642;13.756;2022-09-13T12:24:41;101022.56;;;30.97;100.00
35647;BME280;28680;45.642;13.756;2022-09-13T12:32:33;101011.22;;;30.83;100.00
35647;BME280;28680;45.642;13.756;2022-09-13T12:38:18;101011.56;;;32.24;100.00
35647;BME280;28680;45.642;13.756;2022-09-13T13:02:02;100995.53;;;31.68;100.00
35647;BME280;28680;45.642;13.756;2022-09-13T13:04:36;100986.41;;;31.79;100.00
35647;BME280;28680;45.642;13.756;2022-09-13T13:07:05;100986.88;;;32.58;100.00
35647;BME280;28680;45.642;13.756;2022-09-13T13:09:47;100993.78;;;32.38;100.00
35647;BME280;28680;45.642;13.756;2022-09-13T13:14:52;100990.44;;;32.63;100.00
35647;BME280;28680;45.642;13.756;2022-09-13T13:23:37;100988.44;;;32.96;100.00
35647;BME280;28680;45.642;13.756;2022-09-13T13:49:52;100984.03;;;32.85;100.00
35647;BME280;28680;45.642;13.756;2022-09-13T13:57:35;100986.09;;;31.76;100.00
35647;BME280;28680;45.642;13.756;2022-09-13T14:08:42;100996.50;;;33.24;100.00
35647;BME280;28680;45.642;13.756;2022-09-13T14:21:16;100988.00;;;32.30;100.00
35647;BME280;28680;45.642;13.756;2022-09-13T14:23:43;100977.69;;;31.72;100.00
35647;BME280;28680;45.642;13.756;2022-09-13T14:26:21;100981.97;;;32.22;100.00
35647;BME280;28680;45.642;13.756;2022-09-13T14:28:56;100978.47;;;32.27;100.00
35647;BME280;28680;45.642;13.756;2022-09-13T14:31:22;100970.75;;;32.51;100.00
35647;BME280;28680;45.642;13.756;2022-09-13T14:33:48;100977.50;;;33.34;100.00
35647;BME280;28680;45.642;13.756;2022-09-13T14:36:21;100965.56;;;33.55;100.00
35647;BME280;28680;45.642;13.756;2022-09-13T14:39:07;100964.78;;;33.60;100.00
35647;BME280;28680;45.642;13.756;2022-09-13T14:41:39;100956.94;;;33.74;100.00
35647;BME280;28680;45.642;13.756;2022-09-13T14:44:22;100960.41;;;33.49;100.00
35647;BME280;28680;45.642;13.756;2022-09-13T14:49:48;100961.59;;;34.04;100.00
35647;BME280;28680;45.642;13.756;2022-09-13T14:52:53;100953.28;;;33.32;100.00
35647;BME280;28680;45.642;13.756;2022-09-13T14:55:26;100953.38;;;33.63;100.00
35647;BME280;28680;45.642;13.756;2022-09-13T14:58:12;100959.28;;;33.39;100.00
35647;BME280;28680;45.642;13.756;2022-09-13T15:00:56;100952.50;;;33.37;100.00
35647;BME280;28680;45.642;13.756;2022-09-13T15:03:23;100950.06;;;33.61;100.00
35647;BME280;28680;45.642;13.756;2022-09-13T15:05:56;100950.06;;;33.61;100.00
35647;BME280;28680;45.642;13.756;2022-09-13T15:11:06;100947.88;;;33.48;100.00
35647;BME280;28680;45.642;13.756;2022-09-13T15:13:33;100948.97;;;33.47;100.00
35647;BME280;28680;45.642;13.756;2022-09-13T15:15:59;100945.44;;;33.56;100.00
35647;BME280;28680;45.642;13.756;2022-09-13T15:18:30;100947.88;;;33.53;100.00
35647;BME280;28680;45.642;13.756;2022-09-13T15:21:15;100953.53;;;33.20;100.00
35647;BME280;28680;45.642;13.756;2022-09-13T15:23:49;100947.44;;;33.08;100.00
35647;BME280;28680;45.642;13.756;2022-09-13T15:26:22;100948.59;;;33.12;100.00
35647;BME280;28680;45.642;13.756;2022-09-13T15:28:59;100955.41;;;33.25;100.00
35647;BME280;28680;45.642;13.756;2022-09-13T15:31:33;100949.41;;;33.13;100.00
35647;BME280;28680;45.642;13.756;2022-09-13T15:37:01;100937.31;;;33.62;100.00
35647;BME280;28680;45.642;13.756;2022-09-13T15:39:46;100944.56;;;33.30;100.00
35647;BME280;28680;45.642;13.756;2022-09-13T15:42:13;100931.09;;;32.98;100.00
35647;BME280;28680;45.642;13.756;2022-09-13T15:44:39;100929.47;;;33.02;100.00
35647;BME280;28680;45.642;13.756;2022-09-13T15:47:17;100925.94;;;32.49;100.00
35647;BME280;28680;45.642;13.756;2022-09-13T15:49:50;100920.28;;;31.85;100.00
35647;BME280;28680;45.642;13.756;2022-09-13T15:52:19;100918.66;;;31.57;100.00
35647;BME280;28680;45.642;13.756;2022-09-13T15:54:48;100916.84;;;31.41;100.00
35647;BME280;28680;45.642;13.756;2022-09-13T15:57:25;100916.44;;;31.81;100.00
35647;BME280;28680;45.642;13.756;2022-09-13T15:59:52;100905.81;;;31.25;100.00
35647;BME280;28680;45.642;13.756;2022-09-13T16:02:28;100908.47;;;31.70;100.00
35647;BME280;28680;45.642;13.756;2022-09-13T16:04:55;100907.75;;;31.52;100.00
35647;BME280;28680;45.642;13.756;2022-09-13T16:07:24;100916.28;;;31.17;100.00
35647;BME280;28680;45.642;13.756;2022-09-13T16:09:50;100912.84;;;30.99;100.00
35647;BME280;28680;45.642;13.756;2022-09-13T16:12:17;100907.19;;;31.28;100.00
35647;BME280;28680;45.642;13.756;2022-09-13T16:14:44;100912.19;;;31.14;100.00
35647;BME280;28680;45.642;13.756;2022-09-13T16:17:25;100910.19;;;31.04;100.00
35647;BME280;28680;45.642;13.756;2022-09-13T16:19:53;100907.00;;;31.35;100.00
35647;BME280;28680;45.642;13.756;2022-09-13T16:22:19;100912.22;;;30.53;100.00
35647;BME280;28680;45.642;13.756;2022-09-13T16:24:46;100903.03;;;30.76;100.00
35647;BME280;28680;45.642;13.756;2022-09-13T16:27:14;100911.91;;;30.33;100.00
35647;BME280;28680;45.642;13.756;2022-09-13T16:29:41;100903.69;;;30.44;100.00
35647;BME280;28680;45.642;13.756;2022-09-13T16:32:07;100901.47;;;30.41;100.00
35647;BME280;28680;45.642;13.756;2022-09-13T16:34:34;100900.28;;;30.54;100.00
35647;BME280;28680;45.642;13.756;2022-09-13T16:37:00;100906.53;;;30.21;100.00
35647;BME280;28680;45.642;13.756;2022-09-13T16:39:26;100907.03;;;30.01;100.00
35647;BME280;28680;45.642;13.756;2022-09-13T16:41:52;100910.56;;;30.01;100.00
35647;BME280;28680;45.642;13.756;2022-09-13T16:44:18;100910.91;;;29.59;100.00
35647;BME280;28680;45.642;13.756;2022-09-13T16:46:44;100904.56;;;29.99;100.00
35647;BME280;28680;45.642;13.756;2022-09-13T16:49:11;100917.28;;;29.99;100.00
35647;BME280;28680;45.642;13.756;2022-09-13T16:51:37;100909.31;;;30.26;100.00